Time;durP1;ratioP1;P1;durP2;ratioP2;P2;SDS_P1;SDS_P2;PMS_P1;PMS_P2;Temp;Humidity;BMP_temperature;BMP_pressure;BME280_temperature;BME280_humidity;BME280_pressure;Samples;Min_cycle;Max_cycle;Signal;HPM_P1;HPM_P2
2022/03/25 00:01:11;;;;;;;23.90;11.03;;;;;7.40;102318.00;;;;5093898;28;20219;-69
2022/03/25 00:03:58;;;;;;;23.53;10.70;;;;;7.40;102321.00;;;;5107507;27;20264;-69
2022/03/25 00:06:47;;;;;;;23.63;11.07;;;;;7.20;102318.00;;;;5104784;27;20365;-69
2022/03/25 00:09:33;;;;;;;24.13;11.23;;;;;7.10;102322.00;;;;5107569;28;20606;-67
2022/03/25 00:12:19;;;;;;;23.53;10.93;;;;;7.20;102316.00;;;;5096140;27;20218;-70
2022/03/25 00:15:06;;;;;;;23.87;11.63;;;;;7.10;102311.00;;;;5099083;28;20280;-70
2022/03/25 00:17:53;;;;;;;27.47;11.63;;;;;7.00;102319.00;;;;5104207;27;20238;-70
2022/03/25 00:20:39;;;;;;;22.00;10.83;;;;;7.00;102322.00;;;;5107094;28;20249;-69
2022/03/25 00:23:27;;;;;;;24.13;10.27;;;;;7.00;102307.00;;;;5107420;27;20218;-69
2022/03/25 00:26:13;;;;;;;25.60;11.00;;;;;7.10;102325.00;;;;5093941;28;20222;-69
2022/03/25 00:29:00;;;;;;;24.27;11.20;;;;;7.00;102321.00;;;;5107306;27;20242;-69
2022/03/25 00:31:46;;;;;;;22.70;10.63;;;;;7.00;102324.00;;;;5106900;27;20239;-70
2022/03/25 00:34:33;;;;;;;25.63;11.57;;;;;7.00;102315.00;;;;5104530;28;20242;-69
2022/03/25 00:37:19;;;;;;;25.40;11.67;;;;;6.90;102316.00;;;;5092638;28;20218;-69
2022/03/25 00:40:08;;;;;;;23.20;11.80;;;;;6.90;102323.00;;;;5074064;28;20223;-69
2022/03/25 00:42:54;;;;;;;25.87;11.40;;;;;6.80;102317.00;;;;5084109;28;20230;-69
2022/03/25 00:45:41;;;;;;;24.67;11.30;;;;;6.90;102315.00;;;;5083892;28;20240;-69
2022/03/25 00:48:28;;;;;;;24.13;11.57;;;;;6.70;102316.00;;;;5084394;28;20277;-70
2022/03/25 00:51:14;;;;;;;23.37;11.07;;;;;6.60;102310.00;;;;5072743;28;20219;-69
2022/03/25 00:54:03;;;;;;;24.03;11.43;;;;;6.70;102310.00;;;;5081986;28;20223;-70
2022/03/25 00:56:50;;;;;;;21.53;10.37;;;;;6.70;102307.00;;;;5086159;28;20244;-70
2022/03/25 00:59:37;;;;;;;27.27;11.83;;;;;6.60;102305.00;;;;5086182;28;20234;-69
2022/03/25 01:02:23;;;;;;;24.10;10.97;;;;;6.50;102307.00;;;;5072883;28;20223;-70
2022/03/25 01:05:10;;;;;;;31.47;11.67;;;;;6.50;102303.00;;;;5071302;28;20709;-69
2022/03/25 01:07:56;;;;;;;27.47;12.07;;;;;6.40;102309.00;;;;5084176;28;20227;-70
2022/03/25 01:10:44;;;;;;;26.97;11.97;;;;;6.40;102313.00;;;;5084079;28;20242;-68
2022/03/25 01:13:33;;;;;;;27.50;12.67;;;;;6.40;102313.00;;;;5075110;28;20232;-69
2022/03/25 01:16:19;;;;;;;23.00;10.43;;;;;6.30;102312.00;;;;5087128;28;20234;-69
2022/03/25 01:19:06;;;;;;;27.90;12.07;;;;;6.20;102308.00;;;;5085079;28;20217;-69
2022/03/25 01:21:52;;;;;;;23.77;10.67;;;;;6.20;102314.00;;;;5103409;28;20301;-70
2022/03/25 01:24:38;;;;;;;30.43;11.43;;;;;6.20;102313.00;;;;5095005;28;20855;-68
2022/03/25 01:27:24;;;;;;;24.80;10.80;;;;;6.20;102301.00;;;;5095423;28;21298;-68
2022/03/25 01:30:12;;;;;;;31.10;12.13;;;;;6.20;102315.00;;;;5104424;28;20317;-67
2022/03/25 01:32:59;;;;;;;24.03;11.67;;;;;6.10;102312.00;;;;5094392;28;20226;-69
2022/03/25 01:35:45;;;;;;;27.67;11.80;;;;;6.00;102303.00;;;;5101489;28;20311;-68
2022/03/25 01:38:32;;;;;;;28.70;11.83;;;;;6.20;102304.00;;;;5106636;27;20300;-68
2022/03/25 01:41:19;;;;;;;27.47;12.67;;;;;6.00;102308.00;;;;5092880;28;20219;-68
2022/03/25 01:44:09;;;;;;;26.43;12.40;;;;;6.10;102305.00;;;;5103223;28;20263;-68
2022/03/25 01:46:58;;;;;;;27.27;12.30;;;;;6.10;102296.00;;;;5103085;28;20234;-69
2022/03/25 01:49:45;;;;;;;26.20;11.73;;;;;6.00;102307.00;;;;5096836;28;20234;-68
2022/03/25 01:52:34;;;;;;;26.33;11.50;;;;;6.00;102316.00;;;;5106240;27;20689;-69
2022/03/25 01:55:26;;;;;;;23.03;11.10;;;;;5.80;102306.00;;;;5093104;28;20230;-69
2022/03/25 01:58:13;;;;;;;25.53;11.77;;;;;5.80;102315.00;;;;5088152;28;20296;-68
2022/03/25 02:01:02;;;;;;;27.27;13.03;;;;;5.90;102306.00;;;;5103825;27;20241;-69
2022/03/25 02:03:50;;;;;;;29.60;12.47;;;;;5.90;102303.00;;;;5086425;28;20791;-69
2022/03/25 02:06:36;;;;;;;38.00;12.30;;;;;5.80;102312.00;;;;5085501;28;20301;-69
2022/03/25 02:09:22;;;;;;;30.03;12.57;;;;;5.80;102308.00;;;;5072900;28;20265;-69
2022/03/25 02:12:09;;;;;;;27.57;12.40;;;;;5.70;102308.00;;;;5069276;28;20808;-69
2022/03/25 02:14:57;;;;;;;28.67;12.63;;;;;5.70;102309.00;;;;5076933;28;20242;-69
2022/03/25 02:17:43;;;;;;;23.73;11.37;;;;;5.60;102311.00;;;;5083128;28;20890;-68
2022/03/25 02:20:30;;;;;;;28.63;12.00;;;;;5.60;102305.00;;;;5085291;28;20969;-69
2022/03/25 02:23:19;;;;;;;26.93;13.27;;;;;5.70;102305.00;;;;5064807;28;20215;-69
2022/03/25 02:26:05;;;;;;;25.60;12.40;;;;;5.50;102307.00;;;;5105085;28;20276;-69
2022/03/25 02:28:52;;;;;;;25.03;11.90;;;;;5.70;102307.00;;;;5105488;28;20230;-68
2022/03/25 02:31:38;;;;;;;24.73;11.80;;;;;5.60;102299.00;;;;5102958;28;20311;-69
2022/03/25 02:34:24;;;;;;;27.40;12.27;;;;;5.40;102302.00;;;;5094692;28;20227;-69
2022/03/25 02:37:11;;;;;;;29.57;12.50;;;;;5.60;102301.00;;;;5089857;28;20304;-70
2022/03/25 02:39:59;;;;;;;24.77;11.63;;;;;5.60;102303.00;;;;5105406;28;20316;-69
2022/03/25 02:42:46;;;;;;;30.43;13.80;;;;;5.70;102306.00;;;;5105195;28;20226;-69
2022/03/25 02:45:32;;;;;;;24.53;11.97;;;;;5.60;102308.00;;;;5107906;27;20303;-70
2022/03/25 02:48:19;;;;;;;32.00;13.20;;;;;5.50;102299.00;;;;5109466;27;20234;-69
2022/03/25 02:51:05;;;;;;;33.17;13.23;;;;;5.50;102296.00;;;;5095347;28;20218;-69
2022/03/25 02:53:51;;;;;;;28.10;13.33;;;;;5.50;102300.00;;;;5104486;27;20296;-70
2022/03/25 02:56:39;;;;;;;27.40;13.13;;;;;5.30;102301.00;;;;5105036;27;20307;-70
2022/03/25 02:59:26;;;;;;;24.67;12.00;;;;;5.40;102300.00;;;;5090891;28;20372;-70
2022/03/25 03:02:12;;;;;;;25.83;11.50;;;;;5.40;102299.00;;;;5093214;28;20218;-70
2022/03/25 03:04:58;;;;;;;27.70;12.67;;;;;5.40;102304.00;;;;5106267;27;20258;-68
2022/03/25 03:07:46;;;;;;;27.90;12.53;;;;;5.40;102304.00;;;;5106296;28;20356;-70
2022/03/25 03:10:33;;;;;;;28.27;12.43;;;;;5.50;102290.00;;;;5098665;27;20235;-69
2022/03/25 03:13:21;;;;;;;28.70;12.53;;;;;5.40;102268.00;;;;5106628;28;20704;-70
2022/03/25 03:16:08;;;;;;;25.50;12.83;;;;;5.30;102300.00;;;;5108584;27;20227;-68
2022/03/25 03:18:55;;;;;;;27.77;12.93;;;;;5.10;102304.00;;;;5106415;27;20319;-69
2022/03/25 03:21:41;;;;;;;28.03;12.60;;;;;5.20;102311.00;;;;5108908;27;20717;-69
2022/03/25 03:24:27;;;;;;;29.70;13.07;;;;;5.10;102307.00;;;;5101683;28;20296;-69
2022/03/25 03:27:14;;;;;;;36.60;11.83;;;;;5.10;102304.00;;;;5095203;28;20274;-70
2022/03/25 03:30:02;;;;;;;25.20;11.33;;;;;5.00;102303.00;;;;5108465;28;20755;-70
2022/03/25 03:32:54;;;;;;;26.73;11.33;;;;;5.00;102307.00;;;;5087367;28;20231;-69
2022/03/25 03:35:41;;;;;;;26.20;12.07;;;;;5.00;102310.00;;;;5085415;28;20235;-69
2022/03/25 03:38:27;;;;;;;26.90;12.33;;;;;5.10;102313.00;;;;5078578;28;20309;-66
2022/03/25 03:41:14;;;;;;;31.80;12.53;;;;;5.10;102313.00;;;;5092066;27;20859;-69
2022/03/25 03:44:01;;;;;;;30.00;13.37;;;;;5.10;102306.00;;;;5108329;27;20353;-69
2022/03/25 03:46:49;;;;;;;25.97;10.97;;;;;5.10;102313.00;;;;5089225;28;20222;-70
2022/03/25 03:49:35;;;;;;;30.13;12.83;;;;;5.10;102314.00;;;;5073976;28;20231;-69
2022/03/25 03:52:23;;;;;;;29.83;13.80;;;;;5.10;102306.00;;;;5073826;28;20218;-70
2022/03/25 03:55:13;;;;;;;31.57;12.47;;;;;5.10;102303.00;;;;5087299;28;20521;-70
2022/03/25 03:57:59;;;;;;;29.53;13.27;;;;;5.10;102298.00;;;;5086100;28;20231;-70
2022/03/25 04:00:46;;;;;;;29.23;13.93;;;;;4.90;102301.00;;;;5107951;27;20235;-70
2022/03/25 04:03:34;;;;;;;27.53;12.90;;;;;5.00;102307.00;;;;5099293;28;20308;-70
2022/03/25 04:06:22;;;;;;;27.77;12.47;;;;;4.90;102304.00;;;;5093068;28;20230;-71
2022/03/25 04:09:09;;;;;;;23.13;11.23;;;;;4.90;102313.00;;;;5107522;27;20372;-70
2022/03/25 04:11:55;;;;;;;22.00;12.67;;;;;4.90;102305.00;;;;5107552;28;20243;-70
2022/03/25 04:14:42;;;;;;;27.50;12.30;;;;;4.70;102305.00;;;;5107746;28;20231;-69
2022/03/25 04:17:28;;;;;;;26.70;12.00;;;;;4.80;102306.00;;;;5095382;28;20235;-70
2022/03/25 04:20:16;;;;;;;28.20;12.53;;;;;4.60;102313.00;;;;5091143;28;20229;-70
2022/03/25 04:23:03;;;;;;;36.73;13.53;;;;;4.60;102306.00;;;;5100395;27;20226;-70
2022/03/25 04:25:49;;;;;;;25.50;11.97;;;;;4.70;102317.00;;;;5107400;28;20755;-69
2022/03/25 04:28:36;;;;;;;29.37;12.83;;;;;4.60;102321.00;;;;5107703;28;20377;-70
2022/03/25 04:31:22;;;;;;;32.83;14.03;;;;;4.70;102321.00;;;;5093272;28;20221;-70
2022/03/25 04:34:09;;;;;;;28.93;14.10;;;;;4.80;102318.00;;;;5104440;27;20230;-71
2022/03/25 04:36:57;;;;;;;31.30;13.63;;;;;4.70;102318.00;;;;5107318;28;20241;-71
2022/03/25 04:39:43;;;;;;;36.90;15.07;;;;;4.70;102322.00;;;;5107700;28;20312;-69
2022/03/25 04:42:29;;;;;;;35.40;15.40;;;;;4.60;102334.00;;;;5095589;28;20755;-67
2022/03/25 04:45:18;;;;;;;33.93;13.17;;;;;4.60;102326.00;;;;5091234;28;20245;-70
2022/03/25 04:48:05;;;;;;;28.10;13.10;;;;;4.60;102324.00;;;;5107984;27;20247;-70
2022/03/25 04:50:51;;;;;;;30.87;12.03;;;;;4.60;102313.00;;;;5104325;28;20238;-69
2022/03/25 04:53:39;;;;;;;27.37;13.53;;;;;4.50;102334.00;;;;5107237;28;20226;-71
2022/03/25 04:56:25;;;;;;;32.40;13.57;;;;;4.50;102330.00;;;;5092899;28;20227;-70
2022/03/25 04:59:11;;;;;;;31.87;13.33;;;;;4.40;102331.00;;;;5105747;27;20230;-70
2022/03/25 05:01:57;;;;;;;27.10;12.53;;;;;4.30;102332.00;;;;5104098;28;20688;-70
2022/03/25 05:04:44;;;;;;;37.07;13.17;;;;;4.30;102332.00;;;;5106390;27;21014;-70
2022/03/25 05:07:30;;;;;;;28.77;13.30;;;;;4.40;102330.00;;;;5103928;28;20231;-71
2022/03/25 05:10:18;;;;;;;35.97;14.40;;;;;4.30;102333.00;;;;5089764;28;20656;-69
2022/03/25 05:13:05;;;;;;;33.73;14.57;;;;;4.30;102334.00;;;;5106857;28;20231;-69
2022/03/25 05:15:52;;;;;;;31.80;14.17;;;;;4.20;102341.00;;;;5105963;28;20238;-71
2022/03/25 05:18:38;;;;;;;31.93;13.90;;;;;4.30;102328.00;;;;5103594;28;20234;-70
2022/03/25 05:21:25;;;;;;;28.27;13.60;;;;;4.20;102334.00;;;;5092311;28;20750;-71
2022/03/25 05:24:11;;;;;;;27.63;12.33;;;;;4.30;102329.00;;;;5094591;28;20257;-71
2022/03/25 05:26:59;;;;;;;29.57;13.90;;;;;4.30;102327.00;;;;5106330;28;20221;-69
2022/03/25 05:29:46;;;;;;;32.97;12.80;;;;;4.20;102337.00;;;;5106289;27;20229;-68
2022/03/25 05:32:32;;;;;;;35.67;13.40;;;;;4.40;102322.00;;;;5091541;28;20245;-69
2022/03/25 05:35:19;;;;;;;33.73;15.07;;;;;4.40;102333.00;;;;5089816;28;20218;-69
2022/03/25 05:38:05;;;;;;;33.73;14.50;;;;;4.30;102335.00;;;;5093852;28;20271;-71
2022/03/25 05:40:52;;;;;;;37.77;15.57;;;;;4.30;102342.00;;;;5105731;28;20234;-70
2022/03/25 05:43:39;;;;;;;32.80;14.83;;;;;4.30;102336.00;;;;5097604;28;20246;-67
2022/03/25 05:46:26;;;;;;;40.17;15.60;;;;;4.40;102333.00;;;;5093893;28;20271;-70
2022/03/25 05:49:12;;;;;;;31.87;15.80;;;;;4.30;102339.00;;;;5102907;28;20289;-70
2022/03/25 05:51:58;;;;;;;36.67;14.77;;;;;4.30;102337.00;;;;5105588;28;20222;-70
2022/03/25 05:54:45;;;;;;;38.30;15.50;;;;;4.40;102347.00;;;;5105752;28;20238;-71
2022/03/25 05:57:31;;;;;;;39.20;14.97;;;;;4.30;102346.00;;;;5093006;28;20303;-68
2022/03/25 06:00:19;;;;;;;34.80;15.87;;;;;4.40;102337.00;;;;5105211;28;20650;-71
2022/03/25 06:03:06;;;;;;;31.03;14.93;;;;;4.50;102347.00;;;;5105730;28;20304;-70
2022/03/25 06:05:53;;;;;;;35.50;14.87;;;;;4.50;102356.00;;;;5105655;28;20234;-71
2022/03/25 06:08:40;;;;;;;43.20;17.40;;;;;4.50;102340.00;;;;5076686;28;20230;-67
2022/03/25 06:11:26;;;;;;;36.23;17.63;;;;;4.50;102360.00;;;;5069829;28;20242;-71
2022/03/25 06:14:12;;;;;;;37.20;16.33;;;;;4.70;102363.00;;;;5085561;28;20227;-70
2022/03/25 06:17:00;;;;;;;43.23;18.43;;;;;4.70;102371.00;;;;5082634;28;20265;-70
2022/03/25 06:19:46;;;;;;;38.70;17.13;;;;;4.70;102372.00;;;;5082781;28;20239;-69
2022/03/25 06:22:33;;;;;;;40.67;18.13;;;;;4.80;102370.00;;;;5105440;28;20293;-70
2022/03/25 06:25:20;;;;;;;35.47;17.47;;;;;4.90;102377.00;;;;5109699;28;20234;-69
2022/03/25 06:28:07;;;;;;;41.27;17.17;;;;;5.00;102368.00;;;;5109597;27;20268;-70
2022/03/25 06:30:53;;;;;;;50.03;18.17;;;;;5.00;102372.00;;;;5107343;28;20233;-70
2022/03/25 06:33:41;;;;;;;49.77;19.57;;;;;5.10;102377.00;;;;5103875;27;20249;-68
2022/03/25 06:36:28;;;;;;;43.07;18.20;;;;;5.00;102373.00;;;;5097240;27;20238;-70
2022/03/25 06:39:14;;;;;;;45.00;19.57;;;;;5.20;102382.00;;;;5109503;28;20238;-70
2022/03/25 06:42:01;;;;;;;37.03;16.73;;;;;5.30;102383.00;;;;5109650;27;20217;-70
2022/03/25 06:44:47;;;;;;;44.70;18.20;;;;;5.30;102387.00;;;;5108321;27;20749;-70
2022/03/25 06:47:34;;;;;;;46.40;20.13;;;;;5.20;102381.00;;;;5086730;27;20715;-70
2022/03/25 06:50:24;;;;;;;48.07;20.07;;;;;5.30;102384.00;;;;5109042;28;20765;-69
2022/03/25 06:53:11;;;;;;;51.20;20.90;;;;;5.50;102388.00;;;;5106194;28;20252;-70
2022/03/25 06:55:58;;;;;;;48.20;19.67;;;;;5.50;102396.00;;;;5109016;28;20596;-68
2022/03/25 06:58:44;;;;;;;46.87;20.07;;;;;5.60;102392.00;;;;5104884;27;20234;-71
2022/03/25 07:01:32;;;;;;;51.90;21.10;;;;;5.70;102396.00;;;;5095037;28;20291;-70
2022/03/25 07:04:19;;;;;;;45.67;21.37;;;;;5.80;102391.00;;;;5108187;28;20237;-69
2022/03/25 07:07:07;;;;;;;48.60;20.07;;;;;5.80;102395.00;;;;5096908;27;20419;-70
2022/03/25 07:09:54;;;;;;;50.20;23.20;;;;;5.80;102393.00;;;;5108766;28;20233;-69
2022/03/25 07:12:43;;;;;;;57.47;23.37;;;;;6.00;102389.00;;;;5097508;28;20234;-69
2022/03/25 07:15:30;;;;;;;47.13;21.60;;;;;6.10;102403.00;;;;5094387;27;20720;-69
2022/03/25 07:18:17;;;;;;;50.43;22.00;;;;;6.30;102402.00;;;;5104485;28;20792;-70
2022/03/25 07:21:04;;;;;;;56.80;22.13;;;;;6.40;102403.00;;;;5108598;28;20268;-70
2022/03/25 07:23:52;;;;;;;49.50;21.77;;;;;6.40;102410.00;;;;5108711;28;20231;-70
2022/03/25 07:26:38;;;;;;;55.40;22.67;;;;;6.60;102427.00;;;;5099630;28;20244;-70
2022/03/25 07:29:24;;;;;;;53.97;23.30;;;;;6.70;102426.00;;;;5092109;28;20300;-70
2022/03/25 07:32:11;;;;;;;55.83;22.70;;;;;6.70;102422.00;;;;5108226;28;20775;-69
2022/03/25 07:34:58;;;;;;;52.27;22.80;;;;;7.00;102429.00;;;;5104732;28;20238;-70
2022/03/25 07:37:45;;;;;;;49.63;21.00;;;;;7.00;102428.00;;;;5105813;28;20293;-68
2022/03/25 07:40:33;;;;;;;55.00;21.40;;;;;7.00;102431.00;;;;5094250;28;20230;-70
2022/03/25 07:43:20;;;;;;;60.07;24.30;;;;;7.10;102438.00;;;;5107035;28;20221;-70
2022/03/25 07:46:07;;;;;;;54.73;23.53;;;;;7.20;102437.00;;;;5107886;28;20229;-69
2022/03/25 07:48:58;;;;;;;57.50;23.30;;;;;7.30;102435.00;;;;5108084;28;20227;-69
2022/03/25 07:51:44;;;;;;;51.60;23.43;;;;;7.50;102437.00;;;;5108159;28;20226;-69
2022/03/25 07:54:31;;;;;;;51.53;23.40;;;;;7.50;102450.00;;;;5093232;28;20269;-69
2022/03/25 07:57:18;;;;;;;58.37;22.50;;;;;7.70;102458.00;;;;5107771;27;21031;-70
2022/03/25 08:00:11;;;;;;;56.03;23.80;;;;;7.90;102451.00;;;;5105701;27;20246;-69
2022/03/25 08:02:57;;;;;;;51.83;22.83;;;;;8.00;102457.00;;;;5086070;28;20233;-70
2022/03/25 08:05:45;;;;;;;55.87;23.77;;;;;8.20;102462.00;;;;5076617;28;20728;-70
2022/03/25 08:08:32;;;;;;;61.90;23.53;;;;;8.20;102468.00;;;;5070523;28;20229;-70
2022/03/25 08:11:20;;;;;;;57.80;24.03;;;;;8.40;102461.00;;;;5084308;28;20224;-70
2022/03/25 08:14:07;;;;;;;57.67;23.00;;;;;8.60;102474.00;;;;5087289;28;20251;-70
2022/03/25 08:16:54;;;;;;;63.77;25.97;;;;;8.70;102434.00;;;;5087225;28;20259;-68
2022/03/25 08:19:40;;;;;;;59.63;24.83;;;;;9.10;102474.00;;;;5078237;28;20242;-70
2022/03/25 08:22:26;;;;;;;61.17;26.30;;;;;9.20;102474.00;;;;5068156;28;20230;-71
2022/03/25 08:28:18;;;;;;;53.77;25.10;;;;;9.70;102475.00;;;;5086502;28;20588;-70
2022/03/25 08:31:05;;;;;;;55.93;24.63;;;;;9.70;102478.00;;;;5104810;28;20224;-70
2022/03/25 08:33:52;;;;;;;52.57;26.03;;;;;10.00;102476.00;;;;5083987;28;20355;-71
2022/03/25 08:36:38;;;;;;;60.67;25.30;;;;;10.20;102480.00;;;;5073295;28;20234;-70
2022/03/25 08:39:24;;;;;;;53.33;24.57;;;;;10.30;102480.00;;;;5084194;28;20229;-71
2022/03/25 08:42:12;;;;;;;54.30;24.37;;;;;10.40;102479.00;;;;5078839;28;20235;-70
2022/03/25 08:44:58;;;;;;;44.80;21.27;;;;;10.70;102474.00;;;;5086832;28;20228;-70
2022/03/25 08:47:48;;;;;;;47.43;21.80;;;;;10.90;102477.00;;;;5075157;28;20238;-70
2022/03/25 08:50:34;;;;;;;52.03;22.40;;;;;11.20;102479.00;;;;5072047;28;20253;-69
2022/03/25 08:53:21;;;;;;;53.27;22.90;;;;;11.40;102480.00;;;;5086263;28;20708;-72
2022/03/25 08:56:07;;;;;;;49.30;23.67;;;;;11.30;102476.00;;;;5086378;28;20585;-70
2022/03/25 08:58:54;;;;;;;57.60;25.63;;;;;11.60;102478.00;;;;5081271;28;20281;-69
2022/03/25 09:01:41;;;;;;;58.90;24.37;;;;;11.70;102486.00;;;;5073014;28;20586;-69
2022/03/25 09:04:30;;;;;;;58.67;24.23;;;;;11.60;102499.00;;;;5086000;28;20234;-71
2022/03/25 09:07:16;;;;;;;57.57;24.73;;;;;11.80;102488.00;;;;5086040;28;20222;-71
2022/03/25 09:10:03;;;;;;;61.87;25.53;;;;;11.90;102497.00;;;;5086336;28;20763;-71
2022/03/25 09:12:49;;;;;;;54.13;24.20;;;;;12.10;102493.00;;;;5097926;28;20716;-70
2022/03/25 09:15:35;;;;;;;53.80;23.10;;;;;12.20;102491.00;;;;5091969;28;20241;-69
2022/03/25 09:18:22;;;;;;;53.90;24.00;;;;;12.20;102496.00;;;;5101463;28;20224;-69
2022/03/25 09:21:09;;;;;;;57.63;25.13;;;;;12.40;102498.00;;;;5088704;28;20710;-71
2022/03/25 09:23:55;;;;;;;50.50;22.40;;;;;12.70;102501.00;;;;5085312;28;20234;-70
2022/03/25 09:26:41;;;;;;;45.03;21.87;;;;;13.00;102500.00;;;;5093334;28;20300;-70
2022/03/25 09:29:28;;;;;;;48.57;22.40;;;;;13.30;102499.00;;;;5106583;27;20819;-71
2022/03/25 09:32:14;;;;;;;49.23;21.47;;;;;13.40;102502.00;;;;5106288;28;20226;-71
2022/03/25 09:35:10;;;;;;;46.63;19.17;;;;;13.50;102494.00;;;;5100152;28;20301;-71
2022/03/25 09:37:57;;;;;;;41.10;18.40;;;;;13.70;102509.00;;;;5103427;28;20250;-70
2022/03/25 09:40:45;;;;;;;39.43;18.53;;;;;13.70;102510.00;;;;5092569;28;20691;-70
2022/03/25 09:43:31;;;;;;;43.60;19.60;;;;;13.70;102504.00;;;;5090010;28;20229;-70
2022/03/25 09:46:21;;;;;;;36.73;17.33;;;;;14.10;102490.00;;;;5105754;28;20499;-67
2022/03/25 09:49:08;;;;;;;41.63;18.10;;;;;14.40;102505.00;;;;5106487;28;20218;-70
2022/03/25 09:51:59;;;;;;;37.90;17.63;;;;;14.50;102496.00;;;;5103673;28;20262;-70
2022/03/25 09:54:47;;;;;;;35.93;16.60;;;;;14.80;102512.00;;;;5104999;28;20282;-70
2022/03/25 09:57:33;;;;;;;33.97;14.83;;;;;14.70;102497.00;;;;5090086;28;20316;-70
2022/03/25 10:00:20;;;;;;;37.20;16.33;;;;;15.00;102509.00;;;;5102217;28;20237;-71
2022/03/25 10:03:07;;;;;;;32.87;15.70;;;;;15.10;102499.00;;;;5103158;28;20230;-69
2022/03/25 10:06:01;;;;;;;32.47;14.60;;;;;15.10;102495.00;;;;5085200;28;20300;-70
2022/03/25 10:09:02;;;;;;;26.67;13.50;;;;;15.10;102504.00;;;;5082730;28;20293;-69
2022/03/25 10:11:50;;;;;;;34.03;14.67;;;;;15.10;102497.00;;;;5073246;28;20232;-67
2022/03/25 10:14:36;;;;;;;39.67;15.43;;;;;15.70;102503.00;;;;5085677;28;20229;-70
2022/03/25 10:17:22;;;;;;;32.03;16.27;;;;;15.90;102502.00;;;;5105419;28;20234;-70
2022/03/25 10:20:10;;;;;;;35.53;13.70;;;;;16.00;102503.00;;;;5083589;28;20608;-69
2022/03/25 10:23:02;;;;;;;31.83;14.90;;;;;16.20;102498.00;;;;5082789;28;20227;-71
2022/03/25 10:25:51;;;;;;;29.67;13.43;;;;;16.40;102459.00;;;;5072975;28;20232;-68
2022/03/25 10:28:40;;;;;;;24.87;12.87;;;;;16.60;102492.00;;;;5069982;28;20267;-70
2022/03/25 10:31:26;;;;;;;28.87;12.87;;;;;16.70;102493.00;;;;5082986;28;20269;-71
2022/03/25 10:34:21;;;;;;;32.37;13.13;;;;;16.80;102495.00;;;;5077151;28;20325;-69
2022/03/25 10:37:10;;;;;;;28.37;13.90;;;;;17.00;102494.00;;;;5084934;28;20284;-70
2022/03/25 10:39:56;;;;;;;31.17;13.57;;;;;17.10;102499.00;;;;5072077;28;20233;-69
2022/03/25 10:43:04;;;;;;;27.63;12.80;;;;;17.10;102495.00;;;;5071200;28;20227;-70
2022/03/25 10:45:52;;;;;;;30.00;13.53;;;;;17.00;102483.00;;;;5073119;28;20235;-71
2022/03/25 10:48:39;;;;;;;28.30;13.73;;;;;17.20;102494.00;;;;5069834;28;20289;-70
2022/03/25 10:51:25;;;;;;;32.93;13.03;;;;;17.20;102491.00;;;;5084762;28;20231;-71
2022/03/25 10:54:13;;;;;;;28.33;14.17;;;;;17.60;102488.00;;;;5068069;28;20228;-70
2022/03/25 10:57:01;;;;;;;31.50;14.03;;;;;17.60;102508.00;;;;5076859;28;20228;-71
2022/03/25 10:59:59;;;;;;;32.63;14.87;;;;;17.80;102495.00;;;;5066763;28;20764;-69
2022/03/25 11:02:47;;;;;;;29.03;13.70;;;;;17.90;102488.00;;;;5066505;28;20236;-70
2022/03/25 11:05:35;;;;;;;34.43;14.57;;;;;18.00;102493.00;;;;5081696;28;20270;-70
2022/03/25 11:08:22;;;;;;;26.57;13.67;;;;;18.10;102482.00;;;;5104711;27;20276;-69
2022/03/25 11:11:12;;;;;;;25.77;13.23;;;;;18.20;102495.00;;;;5108163;27;20796;-68
2022/03/25 11:13:58;;;;;;;26.70;14.20;;;;;18.40;102494.00;;;;5108931;27;20246;-70
2022/03/25 11:16:48;;;;;;;29.83;14.67;;;;;18.40;102501.00;;;;5094739;28;20602;-70
2022/03/25 11:19:38;;;;;;;28.50;13.10;;;;;18.50;102498.00;;;;5103024;28;20361;-71
2022/03/25 11:22:25;;;;;;;25.20;12.93;;;;;18.10;102485.00;;;;5106496;27;20235;-70
2022/03/25 11:25:16;;;;;;;25.97;12.80;;;;;18.20;102491.00;;;;5108100;28;20289;-70
2022/03/25 11:28:05;;;;;;;30.00;14.43;;;;;18.20;102481.00;;;;5108803;27;20735;-71
2022/03/25 11:30:58;;;;;;;30.43;13.77;;;;;18.00;102477.00;;;;5077299;28;20293;-71
2022/03/25 11:34:09;;;;;;;31.03;13.93;;;;;17.90;102483.00;;;;5068256;28;20971;-71
2022/03/25 11:37:20;;;;;;;27.77;14.07;;;;;17.90;102481.00;;;;5085275;28;20278;-71
2022/03/25 11:40:27;;;;;;;27.77;13.93;;;;;17.70;102482.00;;;;5080283;28;20231;-71
2022/03/25 11:43:15;;;;;;;28.83;13.57;;;;;17.40;102469.00;;;;5081150;28;20936;-71
2022/03/25 11:46:09;;;;;;;27.53;13.93;;;;;17.90;102479.00;;;;5087943;28;20232;-69
2022/03/25 11:48:55;;;;;;;32.77;15.13;;;;;18.10;102473.00;;;;5073670;28;20238;-70
2022/03/25 11:51:41;;;;;;;28.83;13.57;;;;;18.20;102478.00;;;;5074724;28;20227;-70
2022/03/25 11:54:40;;;;;;;29.30;14.33;;;;;18.10;102472.00;;;;5087571;28;20235;-72
2022/03/25 11:57:29;;;;;;;29.23;13.70;;;;;18.00;102436.00;;;;5107890;27;20230;-71
2022/03/25 12:00:23;;;;;;;25.80;12.63;;;;;18.20;102471.00;;;;5083264;28;20235;-69
2022/03/25 12:03:16;;;;;;;29.47;13.17;;;;;18.40;102464.00;;;;5087234;28;20231;-71
2022/03/25 12:06:04;;;;;;;24.27;12.30;;;;;18.60;102462.00;;;;5087867;28;20748;-70
2022/03/25 12:08:58;;;;;;;22.03;11.43;;;;;19.10;102467.00;;;;5087268;28;20231;-68
2022/03/25 12:11:51;;;;;;;23.37;11.20;;;;;19.20;102464.00;;;;5092682;28;20809;-68
2022/03/25 12:15:07;;;;;;;21.27;10.70;;;;;18.80;102468.00;;;;5107485;27;20230;-70
2022/03/25 12:17:55;;;;;;;22.63;10.40;;;;;18.50;102460.00;;;;5092889;28;20223;-70
2022/03/25 12:20:41;;;;;;;19.80;10.40;;;;;18.50;102464.00;;;;5091190;28;20230;-70
2022/03/25 12:23:28;;;;;;;20.33;10.03;;;;;18.20;102465.00;;;;5104903;27;20336;-71
2022/03/25 12:26:14;;;;;;;19.13;8.77;;;;;18.50;102468.00;;;;5104535;27;20227;-70
2022/03/25 12:29:02;;;;;;;18.83;9.77;;;;;18.60;102455.00;;;;5107556;28;20566;-69
2022/03/25 12:31:50;;;;;;;22.00;11.70;;;;;18.50;102455.00;;;;5074717;28;20248;-71
2022/03/25 12:34:41;;;;;;;21.90;10.30;;;;;18.10;102461.00;;;;5101157;28;20243;-72
2022/03/25 12:37:32;;;;;;;18.30;9.93;;;;;18.10;102451.00;;;;5107217;28;20383;-70
2022/03/25 12:40:20;;;;;;;23.97;11.03;;;;;18.30;102457.00;;;;5104117;28;20227;-71
2022/03/25 12:43:11;;;;;;;28.13;11.83;;;;;18.20;102460.00;;;;5107697;27;20311;-70
2022/03/25 12:45:58;;;;;;;23.00;10.67;;;;;18.10;102454.00;;;;5084822;28;20234;-68
2022/03/25 12:48:47;;;;;;;20.80;11.30;;;;;18.00;102458.00;;;;5072158;28;20231;-69
2022/03/25 12:51:33;;;;;;;22.10;11.07;;;;;18.10;102437.00;;;;5086612;28;20235;-70
2022/03/25 12:54:19;;;;;;;20.13;10.93;;;;;18.40;102453.00;;;;5086446;28;21058;-71
2022/03/25 12:57:06;;;;;;;24.07;11.10;;;;;18.70;102453.00;;;;5086865;28;20247;-69
2022/03/25 13:00:12;;;;;;;26.27;10.73;;;;;19.10;102446.00;;;;5081569;28;20822;-69
2022/03/25 13:03:00;;;;;;;18.47;10.47;;;;;19.20;102453.00;;;;5074921;28;20297;-70
2022/03/25 13:05:47;;;;;;;18.27;10.73;;;;;19.20;102429.00;;;;5071426;28;20227;-71
2022/03/25 13:08:33;;;;;;;26.23;11.37;;;;;19.40;102444.00;;;;5086418;28;20308;-71
2022/03/25 13:11:19;;;;;;;24.63;11.80;;;;;19.60;102433.00;;;;5103149;28;20272;-70
2022/03/25 13:14:14;;;;;;;26.03;12.70;;;;;19.70;102430.00;;;;5103397;28;20882;-70
2022/03/25 13:17:00;;;;;;;25.23;12.53;;;;;19.90;102436.00;;;;5094679;28;20223;-68
2022/03/25 13:20:14;;;;;;;25.03;12.13;;;;;20.10;102423.00;;;;5100811;28;20308;-70
2022/03/25 13:23:04;;;;;;;24.80;11.63;;;;;20.30;102428.00;;;;5091990;28;20716;-71
2022/03/25 13:25:51;;;;;;;22.10;11.83;;;;;20.20;102411.00;;;;5091341;28;20223;-71
2022/03/25 13:28:42;;;;;;;24.13;12.10;;;;;20.40;102421.00;;;;5105338;28;20307;-71
2022/03/25 13:31:28;;;;;;;22.00;12.03;;;;;20.30;102414.00;;;;5105755;28;20268;-70
2022/03/25 13:34:17;;;;;;;25.97;12.53;;;;;20.60;102421.00;;;;5099563;28;20589;-69
2022/03/25 13:37:05;;;;;;;25.00;12.50;;;;;20.70;102429.00;;;;5095686;28;20226;-69
2022/03/25 13:39:51;;;;;;;25.70;12.83;;;;;20.70;102423.00;;;;5091522;28;20575;-70